createdAt,value
2022-08-19T00:01:57.186Z,2.90
2022-08-19T00:04:29.937Z,4.80
2022-08-19T00:06:57.586Z,4.37
2022-08-19T00:09:25.343Z,3.77
2022-08-19T00:11:53.175Z,6.33
2022-08-19T00:14:22.056Z,5.27
2022-08-19T00:16:49.572Z,7.87
2022-08-19T00:19:17.393Z,4.27
2022-08-19T00:21:44.730Z,5.00
2022-08-19T00:24:13.184Z,8.83
2022-08-19T00:26:40.651Z,3.87
2022-08-19T00:29:08.607Z,5.83
2022-08-19T00:31:35.893Z,4.87
2022-08-19T00:34:03.961Z,3.37
2022-08-19T00:36:31.484Z,3.90
2022-08-19T00:38:59.676Z,5.27
2022-08-19T00:41:26.916Z,8.53
2022-08-19T00:44:14.894Z,2.87
2022-08-19T00:46:43.568Z,6.87
2022-08-19T00:49:17.768Z,7.73
2022-08-19T00:51:46.335Z,6.20
2022-08-19T00:54:13.684Z,7.57
2022-08-19T00:56:41.681Z,5.30
2022-08-19T00:59:10.111Z,4.27
2022-08-19T01:01:42.052Z,5.20
2022-08-19T01:04:09.659Z,4.27
2022-08-19T01:06:40.928Z,5.73
2022-08-19T01:09:08.343Z,4.30
2022-08-19T01:11:39.828Z,5.33
2022-08-19T01:14:07.297Z,5.53
2022-08-19T01:16:34.417Z,4.43
2022-08-19T01:19:01.598Z,4.37
2022-08-19T01:21:32.099Z,3.37
2022-08-19T01:23:59.610Z,3.47
2022-08-19T01:26:27.049Z,4.07
2022-08-19T01:28:57.432Z,7.00
2022-08-19T01:31:32.547Z,30.87
2022-08-19T01:34:00.608Z,6.67
2022-08-19T01:36:39.445Z,4.87
2022-08-19T01:39:10.167Z,8.93
2022-08-19T01:41:37.434Z,6.17
2022-08-19T01:44:17.591Z,4.13
2022-08-19T01:46:46.718Z,3.70
2022-08-19T01:49:13.890Z,4.90
2022-08-19T01:51:41.027Z,3.87
2022-08-19T01:54:11.808Z,6.17
2022-08-19T01:56:39.854Z,7.90
2022-08-19T01:59:11.580Z,7.77
2022-08-19T02:01:38.741Z,5.53
2022-08-19T02:04:06.861Z,5.73
2022-08-19T02:06:34.295Z,5.13
2022-08-19T02:09:01.446Z,5.80
2022-08-19T02:11:32.509Z,3.63
2022-08-19T02:14:00.233Z,5.13
2022-08-19T02:16:27.490Z,5.40
2022-08-19T02:18:54.688Z,6.33
2022-08-19T02:21:23.014Z,4.73
2022-08-19T02:23:50.668Z,12.97
2022-08-19T02:26:18.443Z,8.20
2022-08-19T02:28:45.602Z,9.20
2022-08-19T02:31:14.120Z,7.63
2022-08-19T02:33:41.644Z,6.80
2022-08-19T02:36:09.559Z,5.47
2022-08-19T02:38:38.172Z,5.53
2022-08-19T02:41:08.246Z,5.23
2022-08-19T02:43:39.961Z,4.73
2022-08-19T02:46:19.037Z,6.50
2022-08-19T02:48:46.593Z,3.70
2022-08-19T02:51:20.492Z,6.27
2022-08-19T02:53:47.821Z,4.73
2022-08-19T02:56:15.317Z,4.40
2022-08-19T02:58:42.588Z,8.63
2022-08-19T03:01:10.472Z,4.07
2022-08-19T03:03:38.340Z,9.13
2022-08-19T03:06:14.070Z,4.37
2022-08-19T03:08:45.136Z,8.33
2022-08-19T03:11:26.374Z,4.73
2022-08-19T03:13:54.641Z,6.90
2022-08-19T03:16:23.045Z,4.10
2022-08-19T03:18:51.167Z,5.10
2022-08-19T03:21:23.134Z,5.40
2022-08-19T03:23:50.518Z,4.23
2022-08-19T03:26:18.112Z,6.30
2022-08-19T03:28:51.172Z,6.53
2022-08-19T03:31:43.282Z,7.93
2022-08-19T03:34:08.305Z,5.67
2022-08-19T03:36:35.411Z,4.43
2022-08-19T03:39:02.751Z,6.30
2022-08-19T03:41:43.337Z,4.50
2022-08-19T03:44:21.717Z,6.63
2022-08-19T03:46:53.677Z,5.13
2022-08-19T03:49:21.152Z,7.30
2022-08-19T03:51:54.929Z,6.13
2022-08-19T03:54:24.069Z,8.40
2022-08-19T03:56:52.068Z,5.23
2022-08-19T03:59:23.736Z,10.20
2022-08-19T04:01:50.984Z,4.70
2022-08-19T04:04:18.219Z,5.73
2022-08-19T04:06:48.850Z,13.43
2022-08-19T04:09:16.004Z,6.90
2022-08-19T04:11:56.091Z,7.23
2022-08-19T04:14:26.238Z,6.27
2022-08-19T04:16:53.549Z,9.77
2022-08-19T04:19:21.089Z,6.30
2022-08-19T04:21:50.170Z,10.30
2022-08-19T04:24:17.612Z,9.00
2022-08-19T04:26:45.023Z,7.73
2022-08-19T04:29:17.678Z,10.63
2022-08-19T04:31:46.268Z,8.17
2022-08-19T04:34:14.927Z,8.27
2022-08-19T04:36:42.927Z,7.53
2022-08-19T04:39:17.929Z,10.07
2022-08-19T04:42:04.366Z,15.53
2022-08-19T04:44:35.802Z,17.93
2022-08-19T04:47:10.870Z,20.83
2022-08-19T04:49:38.855Z,30.10
2022-08-19T04:52:06.073Z,20.63
2022-08-19T04:54:38.175Z,20.73
2022-08-19T04:57:08.550Z,21.17
2022-08-19T04:59:36.523Z,26.67
2022-08-19T05:02:04.638Z,25.10
2022-08-19T05:04:33.268Z,30.17
2022-08-19T05:07:01.880Z,33.93
2022-08-19T05:09:36.138Z,28.33
2022-08-19T05:12:17.736Z,31.67
2022-08-19T05:14:47.057Z,37.20
2022-08-19T05:17:34.965Z,31.97
2022-08-19T05:20:20.887Z,30.37
2022-08-19T05:22:48.331Z,31.93
2022-08-19T05:25:20.257Z,32.27
2022-08-19T05:27:47.775Z,38.77
2022-08-19T05:30:15.072Z,42.43
2022-08-19T05:32:42.305Z,39.80
2022-08-19T05:35:09.583Z,46.03
2022-08-19T05:37:36.802Z,37.17
2022-08-19T05:40:05.147Z,37.90
2022-08-19T05:42:32.559Z,33.30
2022-08-19T05:44:59.911Z,34.50
2022-08-19T05:47:27.625Z,34.07
2022-08-19T05:49:54.865Z,35.47
2022-08-19T05:52:25.758Z,37.53
2022-08-19T05:54:56.125Z,34.07
2022-08-19T05:57:24.447Z,38.10
2022-08-19T05:59:52.878Z,36.23
2022-08-19T06:02:26.162Z,30.27
2022-08-19T06:04:53.571Z,33.70
2022-08-19T06:07:20.754Z,35.43
2022-08-19T06:09:59.036Z,36.90
2022-08-19T06:12:32.772Z,44.90
2022-08-19T06:15:02.067Z,36.10
2022-08-19T06:17:32.743Z,38.60
2022-08-19T06:20:00.289Z,30.80
2022-08-19T06:22:28.182Z,35.47
2022-08-19T06:24:56.376Z,34.92
2022-08-19T06:27:24.062Z,36.67
2022-08-19T06:29:51.334Z,37.50
2022-08-19T06:32:19.650Z,35.90
2022-08-19T06:34:47.417Z,36.27
2022-08-19T06:37:14.710Z,33.25
2022-08-19T06:39:43.233Z,35.97
2022-08-19T06:42:14.042Z,33.10
2022-08-19T06:44:43.249Z,37.47
2022-08-19T06:47:14.556Z,30.55
2022-08-19T06:49:42.581Z,28.05
2022-08-19T06:52:10.175Z,32.22
2022-08-19T06:54:46.580Z,25.33
2022-08-19T06:57:24.031Z,24.90
2022-08-19T06:59:51.395Z,26.05
2022-08-19T07:04:52.688Z,23.13
2022-08-19T07:07:21.468Z,22.83
2022-08-19T07:09:57.990Z,24.65
2022-08-19T07:12:30.399Z,23.80
2022-08-19T07:14:59.065Z,22.30
2022-08-19T07:17:26.520Z,23.15
2022-08-19T07:19:54.170Z,23.02
2022-08-19T07:22:23.684Z,23.27
2022-08-19T07:24:51.750Z,23.77
2022-08-19T07:27:24.748Z,22.50
2022-08-19T07:29:57.585Z,22.63
2022-08-19T07:32:31.418Z,24.35
2022-08-19T07:35:01.764Z,24.40
2022-08-19T07:37:32.992Z,22.77
2022-08-19T07:40:01.686Z,23.48
2022-08-19T07:42:30.989Z,25.38
2022-08-19T07:44:59.323Z,21.33
2022-08-19T07:47:49.428Z,23.75
2022-08-19T07:50:14.442Z,22.52
2022-08-19T07:52:41.869Z,21.75
2022-08-19T07:55:40.642Z,22.38
2022-08-19T07:57:57.204Z,22.23
2022-08-19T08:00:24.907Z,24.38
2022-08-19T08:02:55.553Z,26.58
2022-08-19T08:05:43.870Z,26.02
2022-08-19T08:08:30.967Z,25.90
2022-08-19T08:11:00.129Z,23.27
2022-08-19T08:13:28.157Z,23.65
2022-08-19T08:15:56.842Z,23.02
2022-08-19T08:18:27.663Z,25.58
2022-08-19T08:20:56.299Z,28.27
2022-08-19T08:23:25.964Z,26.02
2022-08-19T08:25:54.598Z,25.00
2022-08-19T08:28:22.162Z,26.40
2022-08-19T08:30:50.586Z,24.20
2022-08-19T08:33:30.087Z,22.88
2022-08-19T08:36:04.155Z,25.10
2022-08-19T08:38:38.960Z,23.77
2022-08-19T08:41:12.378Z,22.92
2022-08-19T08:43:44.707Z,24.13
2022-08-19T08:46:34.236Z,28.80
2022-08-19T08:49:03.048Z,24.48
2022-08-19T08:51:35.196Z,23.15
2022-08-19T08:54:04.865Z,23.38
2022-08-19T08:56:32.655Z,22.13
2022-08-19T08:59:08.957Z,21.52
2022-08-19T09:01:37.370Z,21.85
2022-08-19T09:04:06.698Z,22.48
2022-08-19T09:07:18.688Z,20.23
2022-08-19T09:10:12.760Z,20.98
2022-08-19T09:13:09.747Z,20.20
2022-08-19T09:15:41.545Z,22.30
2022-08-19T09:18:08.819Z,19.98
2022-08-19T09:20:43.075Z,20.90
2022-08-19T09:23:11.936Z,17.88
2022-08-19T09:25:41.169Z,21.50
2022-08-19T09:28:15.180Z,18.38
2022-08-19T09:30:49.623Z,17.65
2022-08-19T09:33:21.131Z,18.83
2022-08-19T09:35:53.031Z,15.73
2022-08-19T09:38:21.801Z,17.38
2022-08-19T09:40:50.167Z,16.58
2022-08-19T09:43:33.801Z,18.30
2022-08-19T09:46:07.313Z,15.93
2022-08-19T09:48:34.865Z,19.30
2022-08-19T09:51:25.338Z,18.27
2022-08-19T09:53:54.668Z,17.80
2022-08-19T09:56:23.042Z,19.75
2022-08-19T09:58:51.954Z,22.75
2022-08-19T10:01:22.998Z,17.98
2022-08-19T10:03:58.034Z,19.25
2022-08-19T10:06:46.894Z,19.48
2022-08-19T10:09:14.037Z,18.73
2022-08-19T10:11:46.983Z,17.35
2022-08-19T10:14:23.569Z,16.80
2022-08-19T10:16:51.819Z,15.00
2022-08-19T10:19:25.692Z,16.13
2022-08-19T10:21:54.461Z,14.48
2022-08-19T10:24:28.942Z,14.15
2022-08-19T10:26:58.950Z,15.98
2022-08-19T10:29:31.892Z,15.57
2022-08-19T10:32:04.645Z,13.32
2022-08-19T10:34:37.703Z,14.43
2022-08-19T10:37:16.228Z,14.35
2022-08-19T10:39:51.399Z,13.48
2022-08-19T10:42:19.709Z,14.32
2022-08-19T10:44:47.907Z,14.90
2022-08-19T10:47:21.982Z,15.18
2022-08-19T10:50:11.701Z,14.68
2022-08-19T10:52:49.811Z,14.57
2022-08-19T10:55:38.374Z,14.38
2022-08-19T10:58:06.040Z,24.48
2022-08-19T11:00:33.880Z,15.90
2022-08-19T11:03:01.149Z,15.80
2022-08-19T11:05:28.475Z,14.73
2022-08-19T11:07:56.706Z,15.52
2022-08-19T11:10:24.623Z,12.60
2022-08-19T11:12:55.382Z,13.02
2022-08-19T11:15:22.844Z,13.25
2022-08-19T11:17:50.556Z,13.90
2022-08-19T11:20:18.027Z,12.23
2022-08-19T11:22:45.515Z,14.40
2022-08-19T11:25:15.028Z,13.35
2022-08-19T11:27:43.886Z,13.95
2022-08-19T11:30:12.884Z,14.23
2022-08-19T11:32:44.683Z,13.48
2022-08-19T11:35:17.061Z,11.80
2022-08-19T11:37:44.428Z,11.75
2022-08-19T11:40:12.431Z,12.73
2022-08-19T11:42:58.122Z,11.40
2022-08-19T11:45:26.098Z,11.70
2022-08-19T11:47:53.858Z,12.80
2022-08-19T11:50:21.308Z,12.60
2022-08-19T11:52:48.630Z,11.38
2022-08-19T11:55:15.914Z,12.25
2022-08-19T11:57:44.791Z,12.27
2022-08-19T12:00:14.085Z,12.40
2022-08-19T12:02:41.721Z,12.82
2022-08-19T12:05:12.585Z,12.88
2022-08-19T12:07:41.994Z,13.90
2022-08-19T12:10:09.552Z,12.52
2022-08-19T12:12:41.556Z,11.27
2022-08-19T12:15:09.998Z,10.85
2022-08-19T12:17:37.449Z,12.05
2022-08-19T12:20:06.559Z,12.30
2022-08-19T12:22:33.828Z,11.77
2022-08-19T12:25:01.936Z,11.18
2022-08-19T12:27:40.417Z,12.27
2022-08-19T12:30:11.040Z,12.55
2022-08-19T12:32:38.488Z,11.90
2022-08-19T12:35:06.450Z,12.68
2022-08-19T12:37:33.782Z,11.88
2022-08-19T12:40:01.263Z,13.35
2022-08-19T12:42:28.525Z,12.07
2022-08-19T12:44:56.084Z,13.65
2022-08-19T12:47:23.920Z,12.77
2022-08-19T12:49:55.475Z,13.75
2022-08-19T12:52:25.124Z,13.40
2022-08-19T12:54:54.402Z,11.00
2022-08-19T12:57:24.442Z,11.32
2022-08-19T12:59:58.887Z,11.15
2022-08-19T13:02:26.088Z,10.52
2022-08-19T13:04:53.434Z,10.10
2022-08-19T13:07:20.475Z,11.00
2022-08-19T13:09:48.024Z,11.23
2022-08-19T13:12:15.376Z,11.05
2022-08-19T13:14:43.119Z,10.15
2022-08-19T13:17:10.269Z,9.15
2022-08-19T13:19:38.264Z,9.90
2022-08-19T13:22:13.265Z,10.02
2022-08-19T13:24:46.865Z,13.38
2022-08-19T13:27:14.663Z,10.35
2022-08-19T13:30:03.524Z,10.23
2022-08-19T13:32:49.797Z,9.82
2022-08-19T13:35:17.824Z,12.32
2022-08-19T13:37:46.429Z,10.73
2022-08-19T13:40:18.122Z,12.18
2022-08-19T13:42:48.483Z,10.63
2022-08-19T13:45:17.678Z,9.93
2022-08-19T13:47:49.818Z,12.35
2022-08-19T13:50:19.114Z,10.75
2022-08-19T13:52:46.553Z,10.48
2022-08-19T13:55:13.913Z,10.55
2022-08-19T13:57:43.229Z,12.85
2022-08-19T14:00:16.448Z,11.05
2022-08-19T14:02:44.234Z,10.48
2022-08-19T14:05:12.450Z,12.07
2022-08-19T14:07:39.897Z,12.27
2022-08-19T14:10:08.286Z,9.93
2022-08-19T14:12:35.639Z,12.75
2022-08-19T14:15:04.292Z,10.02
2022-08-19T14:17:31.547Z,11.20
2022-08-19T14:20:10.903Z,11.93
2022-08-19T14:22:39.579Z,9.27
2022-08-19T14:25:08.692Z,11.18
2022-08-19T14:27:36.730Z,11.55
2022-08-19T14:30:07.975Z,10.05
2022-08-19T14:32:35.480Z,9.55
2022-08-19T14:35:06.041Z,10.23
2022-08-19T14:37:33.911Z,9.50
2022-08-19T14:40:10.325Z,9.82
2022-08-19T14:42:37.680Z,8.63
2022-08-19T14:45:06.475Z,8.65
2022-08-19T14:47:33.771Z,9.27
2022-08-19T14:50:01.055Z,8.75
2022-08-19T14:52:34.549Z,10.10
2022-08-19T14:55:02.431Z,9.80
2022-08-19T14:57:34.927Z,10.13
2022-08-19T15:00:02.350Z,11.65
2022-08-19T15:02:34.758Z,11.13
2022-08-19T15:05:03.162Z,10.05
2022-08-19T15:07:30.604Z,12.10
2022-08-19T15:09:58.307Z,9.85
2022-08-19T15:12:25.785Z,9.02
2022-08-19T15:14:55.971Z,9.10
2022-08-19T15:17:43.427Z,9.75
2022-08-19T15:20:13.621Z,10.13
2022-08-19T15:22:41.499Z,15.75
2022-08-19T15:25:09.463Z,10.25
2022-08-19T15:27:40.780Z,9.85
2022-08-19T15:30:11.517Z,9.73
2022-08-19T15:32:39.236Z,10.32
2022-08-19T15:35:07.458Z,10.30
2022-08-19T15:37:37.227Z,10.30
2022-08-19T15:40:05.979Z,11.73
2022-08-19T15:42:33.821Z,9.35
2022-08-19T15:45:02.639Z,10.48
2022-08-19T15:47:34.542Z,10.50
2022-08-19T15:50:13.462Z,9.80
2022-08-19T15:52:52.100Z,12.20
2022-08-19T15:55:33.501Z,5.45
2022-08-19T15:58:29.059Z,5.22
2022-08-19T16:01:24.440Z,6.15
2022-08-19T16:04:14.916Z,3.75
2022-08-19T16:06:49.033Z,3.97
2022-08-19T16:09:17.127Z,3.95
2022-08-19T16:11:46.424Z,5.47
2022-08-19T16:14:15.426Z,2.72
2022-08-19T16:16:42.789Z,6.15
2022-08-19T16:19:12.022Z,6.68
2022-08-19T16:21:40.450Z,7.05
2022-08-19T16:24:10.912Z,3.47
2022-08-19T16:26:38.568Z,6.60
2022-08-19T16:29:08.773Z,7.82
2022-08-19T16:31:39.589Z,7.82
2022-08-19T16:34:07.021Z,4.93
2022-08-19T16:36:34.370Z,5.13
2022-08-19T16:39:01.798Z,5.90
2022-08-19T16:41:29.323Z,4.80
2022-08-19T16:43:56.626Z,6.30
2022-08-19T16:46:24.632Z,3.03
2022-08-19T16:48:54.747Z,5.15
2022-08-19T16:51:23.041Z,6.28
2022-08-19T16:53:52.541Z,3.92
2022-08-19T16:56:20.665Z,10.27
2022-08-19T16:58:50.334Z,2.75
2022-08-19T17:01:18.093Z,6.22
2022-08-19T17:03:45.459Z,7.85
2022-08-19T17:06:16.211Z,4.40
2022-08-19T17:08:48.696Z,9.23
2022-08-19T17:11:18.931Z,5.47
2022-08-19T17:13:47.930Z,6.78
2022-08-19T17:16:17.618Z,7.13
2022-08-19T17:18:44.975Z,6.60
2022-08-19T17:21:13.362Z,5.00
2022-08-19T17:23:43.617Z,6.33
2022-08-19T17:26:18.129Z,6.55
2022-08-19T17:28:48.834Z,3.70
2022-08-19T17:31:16.189Z,5.03
2022-08-19T17:33:48.447Z,4.57
2022-08-19T17:36:21.553Z,5.65
2022-08-19T17:38:49.251Z,5.83
2022-08-19T17:41:16.851Z,4.67
2022-08-19T17:43:44.318Z,4.63
2022-08-19T17:46:17.587Z,6.50
2022-08-19T17:48:51.837Z,4.88
2022-08-19T17:51:40.746Z,4.85
2022-08-19T17:54:11.012Z,6.47
2022-08-19T17:56:38.394Z,12.95
2022-08-19T17:59:06.267Z,3.90
2022-08-19T18:01:52.029Z,4.38
2022-08-19T18:04:22.880Z,5.28
2022-08-19T18:06:53.711Z,3.38
2022-08-19T18:09:38.655Z,5.53
2022-08-19T18:12:09.736Z,4.70
2022-08-19T18:14:38.054Z,4.53
2022-08-19T18:17:11.126Z,5.03
2022-08-19T18:19:41.640Z,3.17
2022-08-19T18:22:17.391Z,4.53
2022-08-19T18:24:45.880Z,4.03
2022-08-19T18:27:13.433Z,3.63
2022-08-19T18:29:40.690Z,3.60
2022-08-19T18:32:13.838Z,4.47
2022-08-19T18:34:44.222Z,6.40
2022-08-19T18:37:11.761Z,2.70
2022-08-19T18:39:57.735Z,4.37
2022-08-19T18:42:43.432Z,4.50
2022-08-19T18:45:29.085Z,2.97
2022-08-19T18:48:26.876Z,3.13
2022-08-19T18:50:59.209Z,3.43
2022-08-19T18:53:30.818Z,4.10
2022-08-19T18:55:58.241Z,3.83
2022-08-19T18:58:34.261Z,4.33
2022-08-19T19:01:22.992Z,7.60
2022-08-19T19:03:52.926Z,4.90
2022-08-19T19:06:24.195Z,6.60
2022-08-19T19:08:53.184Z,6.80
2022-08-19T19:11:26.270Z,7.97
2022-08-19T19:13:53.422Z,6.73
2022-08-19T19:16:24.448Z,6.87
2022-08-19T19:18:52.988Z,9.50
2022-08-19T19:21:21.284Z,6.73
2022-08-19T19:23:48.752Z,4.90
2022-08-19T19:26:16.142Z,5.53
2022-08-19T19:28:45.956Z,7.13
2022-08-19T19:31:22.863Z,6.10
2022-08-19T19:33:50.214Z,8.30
2022-08-19T19:36:17.707Z,6.30
2022-08-19T19:38:48.544Z,8.50
2022-08-19T19:41:17.802Z,11.23
2022-08-19T19:43:45.038Z,8.10
2022-08-19T19:46:12.680Z,7.03
2022-08-19T19:48:39.902Z,6.43
2022-08-19T19:51:07.066Z,8.37
2022-08-19T19:53:34.334Z,9.13
2022-08-19T19:56:02.715Z,12.13
2022-08-19T19:58:30.502Z,6.57
2022-08-19T20:00:58.878Z,6.13
2022-08-19T20:03:26.757Z,6.33
2022-08-19T20:05:54.895Z,6.60
2022-08-19T20:08:40.718Z,9.07
2022-08-19T20:11:07.993Z,7.83
2022-08-19T20:13:35.357Z,8.37
2022-08-19T20:16:06.083Z,7.30
2022-08-19T20:18:33.566Z,7.17
2022-08-19T20:21:00.861Z,7.03
2022-08-19T20:23:28.148Z,8.23
2022-08-19T20:25:55.872Z,8.27
2022-08-19T20:28:24.167Z,6.77
2022-08-19T20:30:53.206Z,7.33
2022-08-19T20:33:20.412Z,8.73
2022-08-19T20:35:47.696Z,7.87
2022-08-19T20:38:14.826Z,7.90
2022-08-19T20:40:42.198Z,9.07
2022-08-19T20:43:13.382Z,6.93
2022-08-19T20:45:40.589Z,7.37
2022-08-19T20:48:08.230Z,9.60
2022-08-19T20:50:35.918Z,8.70
2022-08-19T20:53:10.677Z,7.40
2022-08-19T20:55:38.463Z,9.03
2022-08-19T20:58:05.837Z,7.33
2022-08-19T21:00:33.699Z,9.50
2022-08-19T21:03:01.029Z,8.97
2022-08-19T21:05:30.545Z,7.37
2022-08-19T21:07:58.688Z,8.30
2022-08-19T21:10:26.516Z,8.43
2022-08-19T21:12:53.836Z,7.80
2022-08-19T21:15:20.996Z,8.77
2022-08-19T21:17:48.872Z,10.23
2022-08-19T21:20:16.134Z,10.40
2022-08-19T21:22:43.366Z,10.65
2022-08-19T21:25:11.033Z,14.57
2022-08-19T21:27:38.422Z,11.47
2022-08-19T21:30:06.223Z,13.00
2022-08-19T21:32:33.624Z,12.80
2022-08-19T21:35:02.228Z,13.00
2022-08-19T21:37:29.762Z,13.43
2022-08-19T21:39:56.940Z,13.95
2022-08-19T21:42:24.497Z,15.00
2022-08-19T21:44:51.820Z,15.27
2022-08-19T21:47:18.972Z,17.90
2022-08-19T21:49:46.395Z,16.80
2022-08-19T21:52:13.768Z,16.43
2022-08-19T21:54:41.128Z,17.47
2022-08-19T21:57:10.507Z,16.90
2022-08-19T21:59:44.193Z,15.67
2022-08-19T22:02:21.061Z,15.83
2022-08-19T22:04:49.527Z,16.40
2022-08-19T22:07:16.934Z,15.63
2022-08-19T22:09:44.889Z,16.30
2022-08-19T22:12:24.102Z,17.30
2022-08-19T22:14:51.872Z,18.07
2022-08-19T22:17:19.757Z,20.30
2022-08-19T22:19:47.132Z,18.47
2022-08-19T22:22:19.400Z,17.33
2022-08-19T22:24:46.685Z,17.70
2022-08-19T22:27:14.027Z,17.87
2022-08-19T22:29:41.285Z,18.47
2022-08-19T22:32:26.360Z,17.57
2022-08-19T22:34:56.820Z,17.70
2022-08-19T22:37:24.171Z,16.50
2022-08-19T22:39:51.367Z,17.53
2022-08-19T22:42:20.280Z,16.57
2022-08-19T22:44:47.561Z,16.07
2022-08-19T22:47:14.840Z,16.13
2022-08-19T22:49:42.061Z,14.43
2022-08-19T22:52:17.873Z,18.50
2022-08-19T22:54:49.784Z,17.80
2022-08-19T22:57:19.583Z,17.57
2022-08-19T22:59:50.761Z,17.47
2022-08-19T23:02:23.486Z,16.03
2022-08-19T23:04:51.324Z,16.37
2022-08-19T23:07:18.896Z,15.80
2022-08-19T23:09:50.888Z,15.27
2022-08-19T23:12:30.727Z,14.57
2022-08-19T23:15:07.161Z,13.63
2022-08-19T23:17:35.456Z,13.53
2022-08-19T23:20:03.256Z,12.40
2022-08-19T23:22:30.726Z,12.07
2022-08-19T23:25:05.709Z,12.90
2022-08-19T23:27:51.578Z,12.67
2022-08-19T23:30:27.837Z,12.67
2022-08-19T23:32:59.656Z,10.52
2022-08-19T23:35:27.267Z,11.07
2022-08-19T23:37:54.716Z,11.53
2022-08-19T23:40:22.498Z,10.17
2022-08-19T23:42:51.652Z,10.80
2022-08-19T23:45:23.696Z,10.67
2022-08-19T23:47:53.276Z,9.80
2022-08-19T23:50:21.517Z,10.27
2022-08-19T23:52:53.676Z,9.33
2022-08-19T23:55:22.620Z,10.80
2022-08-19T23:57:49.841Z,9.67
